Terminal Aerodrome Forecast
Issued by NWS

Home | Current Version | Previous Version | Text Only | Print | Product List | Glossary On
Versions: 1 2 3 4 5 6 7 8 9 10 11 12 13 14 15 16 17 18 19 20 21
000
FTUS43 KLSX 181138
TAFUIN
TAF
KUIN 181138Z 1812/1912 03013G22KT 3SM -SHRA BR VCTS OVC005CB
     FM181400 35018G30KT 3SM -SHRA VCTS OVC010CB
     FM181800 33022G37KT 4SM -SHRA OVC020
     FM182100 32020G35KT P6SM SCT030 BKN100
     FM190700 31013KT P6SM SKC=

USA.gov is the U.S. government's official web portal to all federal, state and local government web resources and services.